sensor_id;sensor_type;location;lat;lon;timestamp;temperature;humidity
67748;HTU21D;54543;50.712;6.070;2024-01-30T00:02:16;10.07;98.74
67748;HTU21D;54543;50.712;6.070;2024-01-30T00:04:41;10.07;98.41
67748;HTU21D;54543;50.712;6.070;2024-01-30T00:07:07;10.04;97.85
67748;HTU21D;54543;50.712;6.070;2024-01-30T00:09:33;9.98;98.30
67748;HTU21D;54543;50.712;6.070;2024-01-30T00:11:59;9.97;99.49
67748;HTU21D;54543;50.712;6.070;2024-01-30T00:14:24;9.97;99.06
67748;HTU21D;54543;50.712;6.070;2024-01-30T00:16:51;9.95;98.71
67748;HTU21D;54543;50.712;6.070;2024-01-30T00:19:16;9.93;99.55
67748;HTU21D;54543;50.712;6.070;2024-01-30T00:21:42;9.92;99.84
67748;HTU21D;54543;50.712;6.070;2024-01-30T00:24:08;10.00;102.11
67748;HTU21D;54543;50.712;6.070;2024-01-30T00:26:33;10.13;99.67
67748;HTU21D;54543;50.712;6.070;2024-01-30T00:28:59;10.19;98.73
67748;HTU21D;54543;50.712;6.070;2024-01-30T00:31:24;10.22;99.31
67748;HTU21D;54543;50.712;6.070;2024-01-30T00:33:50;10.24;99.00
67748;HTU21D;54543;50.712;6.070;2024-01-30T00:36:15;10.28;98.07
67748;HTU21D;54543;50.712;6.070;2024-01-30T00:38:41;10.26;98.42
67748;HTU21D;54543;50.712;6.070;2024-01-30T00:41:08;10.28;98.35
67748;HTU21D;54543;50.712;6.070;2024-01-30T00:43:34;10.35;98.64
67748;HTU21D;54543;50.712;6.070;2024-01-30T00:46:00;10.41;98.32
67748;HTU21D;54543;50.712;6.070;2024-01-30T00:48:26;10.45;97.15
67748;HTU21D;54543;50.712;6.070;2024-01-30T00:50:51;10.45;97.20
67748;HTU21D;54543;50.712;6.070;2024-01-30T00:53:17;10.46;98.67
67748;HTU21D;54543;50.712;6.070;2024-01-30T00:55:43;10.48;96.78
67748;HTU21D;54543;50.712;6.070;2024-01-30T00:58:08;10.46;96.21
67748;HTU21D;54543;50.712;6.070;2024-01-30T01:00:34;10.41;96.24
67748;HTU21D;54543;50.712;6.070;2024-01-30T01:03:00;10.38;97.24
67748;HTU21D;54543;50.712;6.070;2024-01-30T01:05:26;10.40;96.15
67748;HTU21D;54543;50.712;6.070;2024-01-30T01:07:51;10.35;96.43
67748;HTU21D;54543;50.712;6.070;2024-01-30T01:10:17;10.29;97.94
67748;HTU21D;54543;50.712;6.070;2024-01-30T01:12:44;10.27;97.42
67748;HTU21D;54543;50.712;6.070;2024-01-30T01:15:10;10.27;97.36
67748;HTU21D;54543;50.712;6.070;2024-01-30T01:17:36;10.25;97.84
67748;HTU21D;54543;50.712;6.070;2024-01-30T01:20:03;10.26;97.56
67748;HTU21D;54543;50.712;6.070;2024-01-30T01:22:29;10.29;99.42
67748;HTU21D;54543;50.712;6.070;2024-01-30T01:24:54;10.34;98.03
67748;HTU21D;54543;50.712;6.070;2024-01-30T01:27:20;10.31;100.48
67748;HTU21D;54543;50.712;6.070;2024-01-30T01:29:46;10.35;99.30
67748;HTU21D;54543;50.712;6.070;2024-01-30T01:32:12;10.41;97.41
67748;HTU21D;54543;50.712;6.070;2024-01-30T01:34:37;10.40;97.52
67748;HTU21D;54543;50.712;6.070;2024-01-30T01:37:03;10.36;97.05
67748;HTU21D;54543;50.712;6.070;2024-01-30T01:39:28;10.34;97.43
67748;HTU21D;54543;50.712;6.070;2024-01-30T01:41:54;10.33;97.19
67748;HTU21D;54543;50.712;6.070;2024-01-30T01:44:19;10.30;97.00
67748;HTU21D;54543;50.712;6.070;2024-01-30T01:46:45;10.29;97.94
67748;HTU21D;54543;50.712;6.070;2024-01-30T01:49:11;10.27;97.19
67748;HTU21D;54543;50.712;6.070;2024-01-30T01:51:37;10.23;97.24
67748;HTU21D;54543;50.712;6.070;2024-01-30T01:54:04;10.21;97.36
67748;HTU21D;54543;50.712;6.070;2024-01-30T01:56:34;10.16;97.65
67748;HTU21D;54543;50.712;6.070;2024-01-30T01:59:04;10.11;98.06
67748;HTU21D;54543;50.712;6.070;2024-01-30T02:01:32;10.07;98.42
67748;HTU21D;54543;50.712;6.070;2024-01-30T02:03:58;10.05;98.81
67748;HTU21D;54543;50.712;6.070;2024-01-30T02:06:24;10.03;98.55
67748;HTU21D;54543;50.712;6.070;2024-01-30T02:08:49;10.01;98.83
67748;HTU21D;54543;50.712;6.070;2024-01-30T02:11:15;10.03;98.74
67748;HTU21D;54543;50.712;6.070;2024-01-30T02:13:42;9.99;99.45
67748;HTU21D;54543;50.712;6.070;2024-01-30T02:16:07;9.98;99.15
67748;HTU21D;54543;50.712;6.070;2024-01-30T02:18:33;9.98;99.14
67748;HTU21D;54543;50.712;6.070;2024-01-30T02:23:27;9.97;99.18
67748;HTU21D;54543;50.712;6.070;2024-01-30T02:25:52;9.95;99.25
67748;HTU21D;54543;50.712;6.070;2024-01-30T02:28:19;9.95;99.42
67748;HTU21D;54543;50.712;6.070;2024-01-30T02:30:45;9.92;99.53
67748;HTU21D;54543;50.712;6.070;2024-01-30T02:33:12;9.93;99.72
67748;HTU21D;54543;50.712;6.070;2024-01-30T02:35:37;9.97;100.32
67748;HTU21D;54543;50.712;6.070;2024-01-30T02:38:03;10.03;99.32
67748;HTU21D;54543;50.712;6.070;2024-01-30T02:40:29;10.00;99.03
67748;HTU21D;54543;50.712;6.070;2024-01-30T02:42:54;9.99;99.08
67748;HTU21D;54543;50.712;6.070;2024-01-30T02:45:19;9.97;99.22
67748;HTU21D;54543;50.712;6.070;2024-01-30T02:47:45;9.95;99.32
67748;HTU21D;54543;50.712;6.070;2024-01-30T02:50:11;9.92;99.47
67748;HTU21D;54543;50.712;6.070;2024-01-30T02:52:36;9.89;99.80
67748;HTU21D;54543;50.712;6.070;2024-01-30T02:55:02;9.90;101.67
67748;HTU21D;54543;50.712;6.070;2024-01-30T02:57:28;9.96;99.31
67748;HTU21D;54543;50.712;6.070;2024-01-30T02:59:54;9.96;99.07
67748;HTU21D;54543;50.712;6.070;2024-01-30T03:02:20;9.94;99.15
67748;HTU21D;54543;50.712;6.070;2024-01-30T03:04:45;9.93;99.17
67748;HTU21D;54543;50.712;6.070;2024-01-30T03:07:11;9.91;99.28
67748;HTU21D;54543;50.712;6.070;2024-01-30T03:09:36;9.88;101.35
67748;HTU21D;54543;50.712;6.070;2024-01-30T03:12:03;9.88;100.72
67748;HTU21D;54543;50.712;6.070;2024-01-30T03:14:30;9.93;100.74
67748;HTU21D;54543;50.712;6.070;2024-01-30T03:16:56;9.93;100.48
67748;HTU21D;54543;50.712;6.070;2024-01-30T03:19:21;9.97;100.06
67748;HTU21D;54543;50.712;6.070;2024-01-30T03:21:47;10.01;99.33
67748;HTU21D;54543;50.712;6.070;2024-01-30T03:24:12;10.00;99.27
67748;HTU21D;54543;50.712;6.070;2024-01-30T03:26:38;10.00;99.55
67748;HTU21D;54543;50.712;6.070;2024-01-30T03:29:04;9.99;99.54
67748;HTU21D;54543;50.712;6.070;2024-01-30T03:31:29;9.96;100.25
67748;HTU21D;54543;50.712;6.070;2024-01-30T03:33:55;9.92;103.17
67748;HTU21D;54543;50.712;6.070;2024-01-30T03:36:20;9.94;100.54
67748;HTU21D;54543;50.712;6.070;2024-01-30T03:38:46;9.95;100.24
67748;HTU21D;54543;50.712;6.070;2024-01-30T03:41:11;9.92;100.25
67748;HTU21D;54543;50.712;6.070;2024-01-30T03:43:37;9.89;101.08
67748;HTU21D;54543;50.712;6.070;2024-01-30T03:46:03;9.89;101.59
67748;HTU21D;54543;50.712;6.070;2024-01-30T03:48:29;9.91;101.11
67748;HTU21D;54543;50.712;6.070;2024-01-30T03:50:55;9.92;101.06
67748;HTU21D;54543;50.712;6.070;2024-01-30T03:53:21;9.94;100.74
67748;HTU21D;54543;50.712;6.070;2024-01-30T03:55:46;9.95;101.19
67748;HTU21D;54543;50.712;6.070;2024-01-30T03:58:12;9.94;101.42
67748;HTU21D;54543;50.712;6.070;2024-01-30T04:00:37;9.94;101.86
67748;HTU21D;54543;50.712;6.070;2024-01-30T04:03:03;9.98;103.25
67748;HTU21D;54543;50.712;6.070;2024-01-30T04:05:29;10.05;104.69
67748;HTU21D;54543;50.712;6.070;2024-01-30T04:07:54;10.10;102.64
67748;HTU21D;54543;50.712;6.070;2024-01-30T04:10:20;10.14;102.40
67748;HTU21D;54543;50.712;6.070;2024-01-30T04:12:45;10.20;103.01
67748;HTU21D;54543;50.712;6.070;2024-01-30T04:15:11;10.25;102.54
67748;HTU21D;54543;50.712;6.070;2024-01-30T04:17:38;10.30;101.62
67748;HTU21D;54543;50.712;6.070;2024-01-30T04:20:05;10.31;101.67
67748;HTU21D;54543;50.712;6.070;2024-01-30T04:22:31;10.33;102.16
67748;HTU21D;54543;50.712;6.070;2024-01-30T04:24:56;10.35;101.69
67748;HTU21D;54543;50.712;6.070;2024-01-30T04:27:22;10.35;101.68
67748;HTU21D;54543;50.712;6.070;2024-01-30T04:29:48;10.34;103.45
67748;HTU21D;54543;50.712;6.070;2024-01-30T04:32:13;10.35;101.78
67748;HTU21D;54543;50.712;6.070;2024-01-30T04:34:39;10.35;101.92
67748;HTU21D;54543;50.712;6.070;2024-01-30T04:37:04;10.33;102.68
67748;HTU21D;54543;50.712;6.070;2024-01-30T04:39:30;10.31;102.32
67748;HTU21D;54543;50.712;6.070;2024-01-30T04:41:55;10.31;102.88
67748;HTU21D;54543;50.712;6.070;2024-01-30T04:44:21;10.29;102.58
67748;HTU21D;54543;50.712;6.070;2024-01-30T04:46:46;10.26;102.58
67748;HTU21D;54543;50.712;6.070;2024-01-30T04:49:12;10.23;102.65
67748;HTU21D;54543;50.712;6.070;2024-01-30T04:51:37;10.22;103.76
67748;HTU21D;54543;50.712;6.070;2024-01-30T04:54:03;10.24;103.57
67748;HTU21D;54543;50.712;6.070;2024-01-30T04:56:28;10.22;103.30
67748;HTU21D;54543;50.712;6.070;2024-01-30T04:58:54;10.18;103.55
67748;HTU21D;54543;50.712;6.070;2024-01-30T05:01:19;10.15;103.30
67748;HTU21D;54543;50.712;6.070;2024-01-30T05:03:45;10.10;104.01
67748;HTU21D;54543;50.712;6.070;2024-01-30T05:06:10;10.09;104.26
67748;HTU21D;54543;50.712;6.070;2024-01-30T05:08:36;10.06;106.50
67748;HTU21D;54543;50.712;6.070;2024-01-30T05:11:05;10.09;104.93
67748;HTU21D;54543;50.712;6.070;2024-01-30T05:13:31;10.09;104.65
67748;HTU21D;54543;50.712;6.070;2024-01-30T05:15:57;10.08;105.09
67748;HTU21D;54543;50.712;6.070;2024-01-30T05:18:22;10.08;105.63
67748;HTU21D;54543;50.712;6.070;2024-01-30T05:20:50;10.10;104.82
67748;HTU21D;54543;50.712;6.070;2024-01-30T05:23:15;10.09;105.00
67748;HTU21D;54543;50.712;6.070;2024-01-30T05:25:41;10.08;105.19
67748;HTU21D;54543;50.712;6.070;2024-01-30T05:28:06;10.05;105.10
67748;HTU21D;54543;50.712;6.070;2024-01-30T05:30:32;10.03;104.89
67748;HTU21D;54543;50.712;6.070;2024-01-30T05:32:58;10.00;105.72
67748;HTU21D;54543;50.712;6.070;2024-01-30T05:35:23;9.97;106.75
67748;HTU21D;54543;50.712;6.070;2024-01-30T05:37:49;9.98;106.12
67748;HTU21D;54543;50.712;6.070;2024-01-30T05:40:15;9.97;106.50
67748;HTU21D;54543;50.712;6.070;2024-01-30T05:42:41;9.98;106.57
67748;HTU21D;54543;50.712;6.070;2024-01-30T05:45:07;9.98;106.80
67748;HTU21D;54543;50.712;6.070;2024-01-30T05:47:36;10.00;107.75
67748;HTU21D;54543;50.712;6.070;2024-01-30T05:50:02;10.05;106.78
67748;HTU21D;54543;50.712;6.070;2024-01-30T05:52:28;10.07;106.79
67748;HTU21D;54543;50.712;6.070;2024-01-30T05:54:53;10.06;106.94
67748;HTU21D;54543;50.712;6.070;2024-01-30T05:57:19;10.07;106.96
67748;HTU21D;54543;50.712;6.070;2024-01-30T05:59:44;10.08;108.75
67748;HTU21D;54543;50.712;6.070;2024-01-30T06:02:10;10.18;106.69
67748;HTU21D;54543;50.712;6.070;2024-01-30T06:04:36;10.19;106.33
67748;HTU21D;54543;50.712;6.070;2024-01-30T06:07:02;10.15;106.26
67748;HTU21D;54543;50.712;6.070;2024-01-30T06:09:28;10.12;106.40
67748;HTU21D;54543;50.712;6.070;2024-01-30T06:11:54;10.09;106.40
67748;HTU21D;54543;50.712;6.070;2024-01-30T06:14:20;10.08;107.34
67748;HTU21D;54543;50.712;6.070;2024-01-30T06:16:46;10.08;108.56
67748;HTU21D;54543;50.712;6.070;2024-01-30T06:19:11;10.10;110.78
67748;HTU21D;54543;50.712;6.070;2024-01-30T06:21:37;10.19;108.44
67748;HTU21D;54543;50.712;6.070;2024-01-30T06:24:04;10.24;107.39
67748;HTU21D;54543;50.712;6.070;2024-01-30T06:26:29;10.27;107.62
67748;HTU21D;54543;50.712;6.070;2024-01-30T06:28:55;10.29;106.92
67748;HTU21D;54543;50.712;6.070;2024-01-30T06:31:20;10.36;108.69
67748;HTU21D;54543;50.712;6.070;2024-01-30T06:33:49;10.43;106.61
67748;HTU21D;54543;50.712;6.070;2024-01-30T06:36:16;10.43;104.82
67748;HTU21D;54543;50.712;6.070;2024-01-30T06:38:41;10.40;105.18
67748;HTU21D;54543;50.712;6.070;2024-01-30T06:41:07;10.37;104.76
67748;HTU21D;54543;50.712;6.070;2024-01-30T06:43:33;10.34;104.91
67748;HTU21D;54543;50.712;6.070;2024-01-30T06:45:58;10.31;104.93
67748;HTU21D;54543;50.712;6.070;2024-01-30T06:48:25;10.33;105.24
67748;HTU21D;54543;50.712;6.070;2024-01-30T06:50:53;10.30;105.18
67748;HTU21D;54543;50.712;6.070;2024-01-30T06:53:19;10.30;104.48
67748;HTU21D;54543;50.712;6.070;2024-01-30T06:55:44;10.33;104.16
67748;HTU21D;54543;50.712;6.070;2024-01-30T06:58:10;10.33;104.02
67748;HTU21D;54543;50.712;6.070;2024-01-30T07:00:35;10.33;104.16
67748;HTU21D;54543;50.712;6.070;2024-01-30T07:03:01;10.36;104.16
67748;HTU21D;54543;50.712;6.070;2024-01-30T07:05:27;10.40;103.23
67748;HTU21D;54543;50.712;6.070;2024-01-30T07:07:52;10.39;102.90
67748;HTU21D;54543;50.712;6.070;2024-01-30T07:10:18;10.38;102.99
67748;HTU21D;54543;50.712;6.070;2024-01-30T07:12:43;10.37;103.18
67748;HTU21D;54543;50.712;6.070;2024-01-30T07:15:09;10.35;103.32
67748;HTU21D;54543;50.712;6.070;2024-01-30T07:17:35;10.35;102.98
67748;HTU21D;54543;50.712;6.070;2024-01-30T07:20:01;10.41;102.89
67748;HTU21D;54543;50.712;6.070;2024-01-30T07:22:29;10.42;102.57
67748;HTU21D;54543;50.712;6.070;2024-01-30T07:24:55;10.45;103.35
67748;HTU21D;54543;50.712;6.070;2024-01-30T07:27:21;10.53;102.51
67748;HTU21D;54543;50.712;6.070;2024-01-30T07:29:46;10.59;101.38
67748;HTU21D;54543;50.712;6.070;2024-01-30T07:32:12;10.64;101.28
67748;HTU21D;54543;50.712;6.070;2024-01-30T07:34:38;10.65;100.74
67748;HTU21D;54543;50.712;6.070;2024-01-30T07:37:03;10.65;101.16
67748;HTU21D;54543;50.712;6.070;2024-01-30T07:39:29;10.66;101.43
67748;HTU21D;54543;50.712;6.070;2024-01-30T07:41:54;10.66;101.36
67748;HTU21D;54543;50.712;6.070;2024-01-30T07:44:20;10.68;101.33
67748;HTU21D;54543;50.712;6.070;2024-01-30T07:46:46;10.66;100.96
67748;HTU21D;54543;50.712;6.070;2024-01-30T07:49:12;10.68;101.03
67748;HTU21D;54543;50.712;6.070;2024-01-30T07:51:39;10.70;100.84
67748;HTU21D;54543;50.712;6.070;2024-01-30T07:54:11;10.71;100.70
67748;HTU21D;54543;50.712;6.070;2024-01-30T07:56:37;10.73;100.92
67748;HTU21D;54543;50.712;6.070;2024-01-30T07:59:02;10.75;100.93
67748;HTU21D;54543;50.712;6.070;2024-01-30T08:01:28;10.79;100.86
67748;HTU21D;54543;50.712;6.070;2024-01-30T08:03:53;10.80;100.93
67748;HTU21D;54543;50.712;6.070;2024-01-30T08:06:19;10.81;100.47
67748;HTU21D;54543;50.712;6.070;2024-01-30T08:08:45;10.83;100.48
67748;HTU21D;54543;50.712;6.070;2024-01-30T08:11:10;10.86;100.51
67748;HTU21D;54543;50.712;6.070;2024-01-30T08:13:36;10.86;99.80
67748;HTU21D;54543;50.712;6.070;2024-01-30T08:16:01;10.90;99.68
67748;HTU21D;54543;50.712;6.070;2024-01-30T08:18:27;10.90;99.50
67748;HTU21D;54543;50.712;6.070;2024-01-30T08:20:52;10.94;99.13
67748;HTU21D;54543;50.712;6.070;2024-01-30T08:23:18;10.94;98.49
67748;HTU21D;54543;50.712;6.070;2024-01-30T08:25:44;10.98;98.26
67748;HTU21D;54543;50.712;6.070;2024-01-30T08:28:09;11.01;98.23
67748;HTU21D;54543;50.712;6.070;2024-01-30T08:30:35;11.04;97.75
67748;HTU21D;54543;50.712;6.070;2024-01-30T08:33:01;11.08;96.85
67748;HTU21D;54543;50.712;6.070;2024-01-30T08:35:26;11.12;96.83
67748;HTU21D;54543;50.712;6.070;2024-01-30T08:37:52;11.12;96.45
67748;HTU21D;54543;50.712;6.070;2024-01-30T08:40:17;11.12;96.37
67748;HTU21D;54543;50.712;6.070;2024-01-30T08:42:43;11.12;96.34
67748;HTU21D;54543;50.712;6.070;2024-01-30T08:45:09;11.12;96.00
67748;HTU21D;54543;50.712;6.070;2024-01-30T08:47:35;11.13;96.29
67748;HTU21D;54543;50.712;6.070;2024-01-30T08:50:00;11.12;96.68
67748;HTU21D;54543;50.712;6.070;2024-01-30T08:52:26;11.12;96.30
67748;HTU21D;54543;50.712;6.070;2024-01-30T08:54:52;11.14;95.88
67748;HTU21D;54543;50.712;6.070;2024-01-30T08:57:17;11.16;95.36
67748;HTU21D;54543;50.712;6.070;2024-01-30T08:59:43;11.18;95.77
67748;HTU21D;54543;50.712;6.070;2024-01-30T09:02:11;11.19;95.33
67748;HTU21D;54543;50.712;6.070;2024-01-30T09:04:38;11.18;94.51
67748;HTU21D;54543;50.712;6.070;2024-01-30T09:07:04;11.22;95.19
67748;HTU21D;54543;50.712;6.070;2024-01-30T09:09:33;11.28;95.20
67748;HTU21D;54543;50.712;6.070;2024-01-30T09:11:59;11.34;94.31
67748;HTU21D;54543;50.712;6.070;2024-01-30T09:14:29;11.39;94.55
67748;HTU21D;54543;50.712;6.070;2024-01-30T09:16:56;11.44;94.07
67748;HTU21D;54543;50.712;6.070;2024-01-30T09:19:21;11.54;94.89
67748;HTU21D;54543;50.712;6.070;2024-01-30T09:21:47;11.64;93.98
67748;HTU21D;54543;50.712;6.070;2024-01-30T09:24:13;11.74;93.84
67748;HTU21D;54543;50.712;6.070;2024-01-30T09:26:38;11.86;92.71
67748;HTU21D;54543;50.712;6.070;2024-01-30T09:29:04;11.91;92.13
67748;HTU21D;54543;50.712;6.070;2024-01-30T09:31:29;11.92;91.43
67748;HTU21D;54543;50.712;6.070;2024-01-30T09:33:55;11.99;92.08
67748;HTU21D;54543;50.712;6.070;2024-01-30T09:36:21;11.99;91.88
67748;HTU21D;54543;50.712;6.070;2024-01-30T09:38:47;11.99;91.16
67748;HTU21D;54543;50.712;6.070;2024-01-30T09:41:12;11.98;91.96
67748;HTU21D;54543;50.712;6.070;2024-01-30T09:43:39;11.99;91.95
67748;HTU21D;54543;50.712;6.070;2024-01-30T09:46:12;11.99;92.16
67748;HTU21D;54543;50.712;6.070;2024-01-30T09:48:41;12.00;92.41
67748;HTU21D;54543;50.712;6.070;2024-01-30T09:51:09;12.03;92.58
67748;HTU21D;54543;50.712;6.070;2024-01-30T09:53:36;12.08;92.51
67748;HTU21D;54543;50.712;6.070;2024-01-30T09:56:02;12.11;91.99
67748;HTU21D;54543;50.712;6.070;2024-01-30T09:58:28;12.15;91.97
67748;HTU21D;54543;50.712;6.070;2024-01-30T10:00:54;12.19;91.67
67748;HTU21D;54543;50.712;6.070;2024-01-30T10:03:19;12.18;91.43
67748;HTU21D;54543;50.712;6.070;2024-01-30T10:05:51;12.17;90.29
67748;HTU21D;54543;50.712;6.070;2024-01-30T10:08:18;12.20;91.37
67748;HTU21D;54543;50.712;6.070;2024-01-30T10:10:49;12.20;90.35
67748;HTU21D;54543;50.712;6.070;2024-01-30T10:13:17;12.23;91.49
67748;HTU21D;54543;50.712;6.070;2024-01-30T10:15:44;12.27;91.29
67748;HTU21D;54543;50.712;6.070;2024-01-30T10:18:10;12.27;91.18
67748;HTU21D;54543;50.712;6.070;2024-01-30T10:20:36;12.27;91.28
67748;HTU21D;54543;50.712;6.070;2024-01-30T10:23:02;12.29;91.35
67748;HTU21D;54543;50.712;6.070;2024-01-30T10:25:29;12.30;91.27
67748;HTU21D;54543;50.712;6.070;2024-01-30T10:27:56;12.32;90.67
67748;HTU21D;54543;50.712;6.070;2024-01-30T10:30:22;12.33;91.08
67748;HTU21D;54543;50.712;6.070;2024-01-30T10:32:48;12.34;90.90
67748;HTU21D;54543;50.712;6.070;2024-01-30T10:35:14;12.36;90.98
67748;HTU21D;54543;50.712;6.070;2024-01-30T10:37:39;12.36;91.09
67748;HTU21D;54543;50.712;6.070;2024-01-30T10:40:06;12.41;91.47
67748;HTU21D;54543;50.712;6.070;2024-01-30T10:42:36;12.49;91.36
67748;HTU21D;54543;50.712;6.070;2024-01-30T10:45:11;12.53;91.87
67748;HTU21D;54543;50.712;6.070;2024-01-30T10:47:44;12.65;90.92
67748;HTU21D;54543;50.712;6.070;2024-01-30T10:50:12;12.64;90.94
67748;HTU21D;54543;50.712;6.070;2024-01-30T10:52:39;12.61;91.44
67748;HTU21D;54543;50.712;6.070;2024-01-30T10:55:07;12.55;91.94
67748;HTU21D;54543;50.712;6.070;2024-01-30T10:57:37;12.53;92.43
67748;HTU21D;54543;50.712;6.070;2024-01-30T11:00:11;12.48;93.26
67748;HTU21D;54543;50.712;6.070;2024-01-30T11:02:39;12.51;92.55
67748;HTU21D;54543;50.712;6.070;2024-01-30T11:05:06;12.44;93.20
67748;HTU21D;54543;50.712;6.070;2024-01-30T11:07:31;12.45;93.23
67748;HTU21D;54543;50.712;6.070;2024-01-30T11:12:24;12.41;94.61
67748;HTU21D;54543;50.712;6.070;2024-01-30T11:15:07;12.45;95.26
67748;HTU21D;54543;50.712;6.070;2024-01-30T11:17:50;12.50;94.99
67748;HTU21D;54543;50.712;6.070;2024-01-30T11:20:22;12.53;94.58
67748;HTU21D;54543;50.712;6.070;2024-01-30T11:22:51;12.51;94.84
67748;HTU21D;54543;50.712;6.070;2024-01-30T11:25:20;12.48;94.91
67748;HTU21D;54543;50.712;6.070;2024-01-30T11:27:46;12.48;95.03
67748;HTU21D;54543;50.712;6.070;2024-01-30T11:30:29;12.48;97.10
67748;HTU21D;54543;50.712;6.070;2024-01-30T11:32:59;12.47;98.09
67748;HTU21D;54543;50.712;6.070;2024-01-30T11:35:25;12.47;97.00
67748;HTU21D;54543;50.712;6.070;2024-01-30T11:37:51;12.45;97.65
67748;HTU21D;54543;50.712;6.070;2024-01-30T11:40:16;12.46;97.57
67748;HTU21D;54543;50.712;6.070;2024-01-30T11:42:42;12.41;98.39
67748;HTU21D;54543;50.712;6.070;2024-01-30T11:45:08;12.40;98.31
67748;HTU21D;54543;50.712;6.070;2024-01-30T11:47:37;12.38;99.80
67748;HTU21D;54543;50.712;6.070;2024-01-30T11:50:05;12.34;99.53
67748;HTU21D;54543;50.712;6.070;2024-01-30T11:52:33;12.31;100.61
67748;HTU21D;54543;50.712;6.070;2024-01-30T11:54:59;12.23;102.43
67748;HTU21D;54543;50.712;6.070;2024-01-30T11:57:27;12.16;102.05
67748;HTU21D;54543;50.712;6.070;2024-01-30T11:59:52;12.10;102.63
67748;HTU21D;54543;50.712;6.070;2024-01-30T12:02:18;12.02;104.03
67748;HTU21D;54543;50.712;6.070;2024-01-30T12:04:44;11.97;104.31
67748;HTU21D;54543;50.712;6.070;2024-01-30T12:07:09;11.91;104.45
67748;HTU21D;54543;50.712;6.070;2024-01-30T12:09:35;11.90;105.13
67748;HTU21D;54543;50.712;6.070;2024-01-30T12:12:01;11.87;103.83
67748;HTU21D;54543;50.712;6.070;2024-01-30T12:14:26;11.85;105.14
67748;HTU21D;54543;50.712;6.070;2024-01-30T12:16:52;11.86;105.16
67748;HTU21D;54543;50.712;6.070;2024-01-30T12:19:22;11.86;107.43
67748;HTU21D;54543;50.712;6.070;2024-01-30T12:21:56;11.81;107.68
67748;HTU21D;54543;50.712;6.070;2024-01-30T12:24:25;11.79;107.37
67748;HTU21D;54543;50.712;6.070;2024-01-30T12:26:50;11.77;106.72
67748;HTU21D;54543;50.712;6.070;2024-01-30T12:29:17;11.77;106.48
67748;HTU21D;54543;50.712;6.070;2024-01-30T12:31:42;11.77;109.14
67748;HTU21D;54543;50.712;6.070;2024-01-30T12:34:09;11.74;109.63
67748;HTU21D;54543;50.712;6.070;2024-01-30T12:36:34;11.68;109.16
67748;HTU21D;54543;50.712;6.070;2024-01-30T12:39:01;11.68;110.49
67748;HTU21D;54543;50.712;6.070;2024-01-30T12:41:27;11.64;111.21
67748;HTU21D;54543;50.712;6.070;2024-01-30T12:43:57;11.62;112.80
67748;HTU21D;54543;50.712;6.070;2024-01-30T12:46:28;11.61;109.84
67748;HTU21D;54543;50.712;6.070;2024-01-30T12:48:54;11.67;109.81
67748;HTU21D;54543;50.712;6.070;2024-01-30T12:51:20;11.72;110.81
67748;HTU21D;54543;50.712;6.070;2024-01-30T12:53:45;11.75;109.35
67748;HTU21D;54543;50.712;6.070;2024-01-30T12:56:13;11.79;109.42
67748;HTU21D;54543;50.712;6.070;2024-01-30T12:58:39;11.78;108.75
67748;HTU21D;54543;50.712;6.070;2024-01-30T13:01:05;11.81;109.18
67748;HTU21D;54543;50.712;6.070;2024-01-30T13:03:31;11.78;108.91
67748;HTU21D;54543;50.712;6.070;2024-01-30T13:05:56;11.74;109.78
67748;HTU21D;54543;50.712;6.070;2024-01-30T13:08:22;11.74;111.32
67748;HTU21D;54543;50.712;6.070;2024-01-30T13:10:48;11.74;110.16
67748;HTU21D;54543;50.712;6.070;2024-01-30T13:13:13;11.75;109.22
67748;HTU21D;54543;50.712;6.070;2024-01-30T13:15:39;11.73;109.09
67748;HTU21D;54543;50.712;6.070;2024-01-30T13:18:04;11.69;112.59
67748;HTU21D;54543;50.712;6.070;2024-01-30T13:20:30;11.69;110.68
67748;HTU21D;54543;50.712;6.070;2024-01-30T13:22:57;11.62;112.98
67748;HTU21D;54543;50.712;6.070;2024-01-30T13:25:22;11.62;114.33
67748;HTU21D;54543;50.712;6.070;2024-01-30T13:27:48;11.58;113.56
67748;HTU21D;54543;50.712;6.070;2024-01-30T13:30:14;11.54;114.77
67748;HTU21D;54543;50.712;6.070;2024-01-30T13:32:39;11.54;113.39
67748;HTU21D;54543;50.712;6.070;2024-01-30T13:35:07;11.51;113.46
67748;HTU21D;54543;50.712;6.070;2024-01-30T13:37:32;11.47;114.32
67748;HTU21D;54543;50.712;6.070;2024-01-30T13:39:58;11.48;112.50
67748;HTU21D;54543;50.712;6.070;2024-01-30T13:42:23;11.47;113.61
67748;HTU21D;54543;50.712;6.070;2024-01-30T13:44:49;11.46;112.83
67748;HTU21D;54543;50.712;6.070;2024-01-30T13:47:15;11.45;113.10
67748;HTU21D;54543;50.712;6.070;2024-01-30T13:49:41;11.45;117.39
67748;HTU21D;54543;50.712;6.070;2024-01-30T13:52:07;11.53;112.97
67748;HTU21D;54543;50.712;6.070;2024-01-30T13:54:33;11.53;113.03
67748;HTU21D;54543;50.712;6.070;2024-01-30T13:56:59;11.53;113.27
67748;HTU21D;54543;50.712;6.070;2024-01-30T13:59:25;11.55;113.48
67748;HTU21D;54543;50.712;6.070;2024-01-30T14:01:51;11.55;113.32
67748;HTU21D;54543;50.712;6.070;2024-01-30T14:04:17;11.54;113.26
67748;HTU21D;54543;50.712;6.070;2024-01-30T14:06:42;11.53;113.96
67748;HTU21D;54543;50.712;6.070;2024-01-30T14:09:08;11.52;113.28
67748;HTU21D;54543;50.712;6.070;2024-01-30T14:11:34;11.53;112.61
67748;HTU21D;54543;50.712;6.070;2024-01-30T14:13:59;11.48;114.67
67748;HTU21D;54543;50.712;6.070;2024-01-30T14:16:25;11.49;115.09
67748;HTU21D;54543;50.712;6.070;2024-01-30T14:18:50;11.49;113.06
67748;HTU21D;54543;50.712;6.070;2024-01-30T14:21:16;11.53;113.00
67748;HTU21D;54543;50.712;6.070;2024-01-30T14:23:41;11.48;113.16
67748;HTU21D;54543;50.712;6.070;2024-01-30T14:26:07;11.48;113.94
67748;HTU21D;54543;50.712;6.070;2024-01-30T14:28:33;11.48;115.15
67748;HTU21D;54543;50.712;6.070;2024-01-30T14:30:59;11.46;115.15
67748;HTU21D;54543;50.712;6.070;2024-01-30T14:33:24;11.46;115.39
67748;HTU21D;54543;50.712;6.070;2024-01-30T14:35:51;11.46;114.06
67748;HTU21D;54543;50.712;6.070;2024-01-30T14:38:16;11.45;114.22
67748;HTU21D;54543;50.712;6.070;2024-01-30T14:40:42;11.48;113.10
67748;HTU21D;54543;50.712;6.070;2024-01-30T14:43:08;11.44;114.91
67748;HTU21D;54543;50.712;6.070;2024-01-30T14:45:33;11.45;113.12
67748;HTU21D;54543;50.712;6.070;2024-01-30T14:47:59;11.43;114.58
67748;HTU21D;54543;50.712;6.070;2024-01-30T14:50:25;11.39;113.82
67748;HTU21D;54543;50.712;6.070;2024-01-30T14:52:52;11.37;113.46
67748;HTU21D;54543;50.712;6.070;2024-01-30T14:55:18;11.34;114.41
67748;HTU21D;54543;50.712;6.070;2024-01-30T14:57:44;11.32;113.83
67748;HTU21D;54543;50.712;6.070;2024-01-30T15:00:11;11.30;114.85
67748;HTU21D;54543;50.712;6.070;2024-01-30T15:02:37;11.26;112.99
67748;HTU21D;54543;50.712;6.070;2024-01-30T15:05:03;11.17;111.26
67748;HTU21D;54543;50.712;6.070;2024-01-30T15:07:29;10.93;112.94
67748;HTU21D;54543;50.712;6.070;2024-01-30T15:09:55;10.81;113.24